Airfield :
LOGIN :

Register | Disclaimer

   EN    FR    IT 

 










Legend :    VFR   Marginal VFR   IFR   Intensive IFR   Very Intensive IFR
Visi :
Ceiling :
>= 8 km
>= 3000ft
5 to 8 km
1000 to 3000 ft
1500m to 5 km
500 to 1000 ft
800 to 1500m
200 to 500 ft
< 800m
< 200 ft
Symbols :   Thunderstorms  Fog  Heavy snow  Heavy precipitations  Wind > 20 kt
SIGMETs :     Misc.  Thunderstorms  Icing  Turbulence  Mountain Waves  Volcanic Ashes







- Airport Elevation : 458 ft
- Download approach charts


LFSI - St-Dizier

CURRENT METAR :
  • 172300Z AUTO 24008KT 9999 BKN014 OVC020 20/18 Q1010

EXPIRED METARs :
  • 172230Z AUTO 22009KT 9999 FEW020 BKN047 OVC130 20/18 Q1010
  • 172200Z AUTO 21009KT 180V240 9999 -RA FEW026 BKN048 BKN098 20/18 Q1010
  • 172130Z AUTO 17006KT 9999 BKN030/// BKN041/// BKN050/// ///TCU 19/17 Q1010
  • 172100Z AUTO 17004KT 140V200 9999 -RA SCT035/// BKN046/// BKN084/// ///TCU 19/17 Q1010
  • 172030Z AUTO 18004KT 150V220 9999 -RA SCT035/// BKN043/// BKN050/// ///TCU 18/17 Q1010

TAF TAF LFSI
Valid from the 17 at 21:00 until the 18 at 21:00 UTC


172000Z 1721/1821 20010KT 4000 RA BKN005 OVC010
BECMG 1800/1802 8000 NSW BKN020
TEMPO 1804/1809 18015G25KT
TEMPO 1809/1815 4000 SHRA BKN025CB
BECMG 1812/1813 27010KT
No reported NOTAMs for that airfield.



MET'MAP, your aeronautical weather chart ! - Copyright ORBIFLY December 2007 - Disclaimer

ORBIFLY MET'MAP TEAM :

Programming & Development : Alexandra Zaïnal
Concept & Development : Baudouin d'Aumeries
Co-Development & Prog : Marc-Olivier Méhu
Technical & hardware support : Manuel Goepfert

Contact : metmap@orbifly.com




SOURCES & CREDITS :

   NOAA